หน้าหลัก
METAR-TAF:

METAR-TAF

ท่าอากาศยาน :

Chimoio, โมซัมบิก

ละติจูด: 19-07S, ลองจิจูด: 033-28E, ความสูง: 731 ม.

การสังเกตสภาพอากาศปัจจุบัน

รายงานได้ทำขึ้นเมื่อ 16 นาทีที่แล้ว ณ เวลา 08:00 UTC
อุณหภูมิ 23°C
ความชื้น 73%
ความกดอากาศ 1022 hPa
ทัศนวิสัย 10 กม. หรือมากกว่า
มีเมฆเป็นส่วนมากเว้นเป็นระยะที่ความสูง 1500 ฟุต

METAR: FQCH 200800Z /////KT 9999 BKN015 23/18 Q1022

เวลา: 10:16 (08:16 UTC)

การพยากรณ์

รายงานได้ทำขึ้นเมื่อ 4 ชั่วโมงและ 16 นาทีที่แล้ว ณ เวลา 04:00 UTC
การพยากรณ์มีผลตั้งแต่วันที่ 20 ณ เวลา 06 UTC จนถึงวันที่ 21 ณ เวลา 06 UTC
ลม 6 นอตจากตะวันตก/ตะวันตกเฉียงใต้
ทัศนวิสัย 10 กม. หรือมากกว่า
มีเมฆกระจายเป็นบางส่วนที่ความสูง 2000 ฟุต
กำลังกลายเป็น
ตั้งแต่วันที่ 20 ณ เวลา 12 UTC จนถึงวันที่ 20 ณ เวลา 14 UTC
ลม 8 นอตจากใต้/ตะวันออกเฉียงใต้
กำลังกลายเป็น
ตั้งแต่วันที่ 20 ณ เวลา 18 UTC จนถึงวันที่ 20 ณ เวลา 20 UTC
ลม 2 นอตจากทิศทางซึ่งแปรผันได้

TAF: FQCH 200400Z 2006/2106 25006KT 9999 SCT020 TX28/2013Z TN18/2102Z BECMG 2012/2014 15008KT BECMG 2018/2020 VRB02KT

สังเกตการณ์สภาพอากาศและพยากรณ์อากาศของสนามบินมากกว่า 4000 แห่ง (รายงาน METAR และ TAF).

สถานีที่ดูได้จะแสดงไว้ด้วยจุดสีเหลืองและสีแดงบนแผนที่.

เลื่อนเมาส์ไปเหนือจุดเพื่อดูชื่อสถานี.

แล้วคลิกเพื่อดูสังเกตการณ์และการพยากรณ์สภาพอากาศ.

ในการเปลี่ยนแผนที่: คลิกที่ปุ่มสีเขียวที่มีกากบาทสีดำเพื่อซูมเข้า; ที่ปุ่มสีเขียวที่มีขีดเพื่อซูมออก; หรือที่ลูกศรสีเขียวเพื่อไปยังแผนที่ที่อยู่ติดกัน.


METAR-TAF: